createdAt,value
2019-05-06T00:01:19.442Z,14.77
2019-05-06T00:03:51.324Z,14.74
2019-05-06T00:06:23.641Z,14.72
2019-05-06T00:08:55.327Z,14.70
2019-05-06T00:11:27.075Z,14.72
2019-05-06T00:13:59.040Z,14.70
2019-05-06T00:16:30.804Z,14.61
2019-05-06T00:19:04.856Z,14.58
2019-05-06T00:21:36.060Z,14.57
2019-05-06T00:24:08.719Z,14.51
2019-05-06T00:26:44.947Z,14.57
2019-05-06T00:29:18.398Z,14.52
2019-05-06T00:31:49.953Z,14.47
2019-05-06T00:34:21.499Z,14.44
2019-05-06T00:36:54.477Z,14.41
2019-05-06T00:39:36.892Z,14.44
2019-05-06T00:42:16.158Z,14.47
2019-05-06T00:44:47.884Z,14.47
2019-05-06T00:47:19.436Z,14.41
2019-05-06T00:49:51.093Z,14.42
2019-05-06T00:52:23.915Z,14.46
2019-05-06T00:54:56.043Z,14.44
2019-05-06T00:57:29.230Z,14.39
2019-05-06T01:00:00.790Z,14.45
2019-05-06T01:02:34.251Z,14.44
2019-05-06T01:05:06.962Z,14.49
2019-05-06T01:07:38.821Z,14.50
2019-05-06T01:10:11.441Z,14.47
2019-05-06T01:12:44.737Z,14.44
2019-05-06T01:15:18.402Z,14.45
2019-05-06T01:17:50.056Z,14.38
2019-05-06T01:20:24.628Z,14.40
2019-05-06T01:22:56.065Z,14.51
2019-05-06T01:25:27.906Z,14.31
2019-05-06T01:27:59.644Z,14.25
2019-05-06T01:30:33.573Z,14.32
2019-05-06T01:33:05.117Z,14.34
2019-05-06T01:35:37.693Z,14.39
2019-05-06T01:38:24.208Z,14.32
2019-05-06T01:41:00.659Z,14.35
2019-05-06T01:43:40.191Z,14.40
2019-05-06T01:46:13.905Z,14.37
2019-05-06T01:48:48.412Z,14.41
2019-05-06T01:51:23.910Z,14.36
2019-05-06T01:53:54.999Z,14.24
2019-05-06T01:56:26.857Z,14.12
2019-05-06T01:58:58.758Z,14.06
2019-05-06T02:01:30.472Z,13.98
2019-05-06T02:04:04.207Z,13.95
2019-05-06T02:06:35.525Z,13.92
2019-05-06T02:09:10.966Z,13.86
2019-05-06T02:11:44.227Z,13.86
2019-05-06T02:14:15.915Z,13.79
2019-05-06T02:16:47.469Z,13.74
2019-05-06T02:19:19.363Z,13.68
2019-05-06T02:21:54.305Z,13.67
2019-05-06T02:24:30.115Z,13.56
2019-05-06T02:27:01.970Z,13.50
2019-05-06T02:29:35.270Z,13.48
2019-05-06T02:32:24.531Z,13.36
2019-05-06T02:34:46.328Z,13.31
2019-05-06T02:37:34.723Z,13.25
2019-05-06T02:40:07.696Z,13.18
2019-05-06T02:42:39.348Z,13.15
2019-05-06T02:45:12.766Z,13.12
2019-05-06T02:47:55.157Z,13.07
2019-05-06T02:50:28.759Z,13.11
2019-05-06T02:53:02.741Z,13.07
2019-05-06T02:55:36.247Z,13.06
2019-05-06T02:58:06.585Z,13.04
2019-05-06T03:00:39.110Z,13.03
2019-05-06T03:03:13.846Z,13.03
2019-05-06T03:05:44.322Z,13.03
2019-05-06T03:08:15.804Z,12.96
2019-05-06T03:10:48.531Z,12.96
2019-05-06T03:13:23.340Z,12.93
2019-05-06T03:15:54.384Z,12.90
2019-05-06T03:18:26.068Z,12.93
2019-05-06T03:20:59.600Z,12.93
2019-05-06T03:23:44.748Z,12.94
2019-05-06T03:26:16.532Z,12.96
2019-05-06T03:28:48.263Z,12.94
2019-05-06T03:31:25.330Z,12.96
2019-05-06T03:34:16.328Z,13.05
2019-05-06T03:36:33.046Z,13.07
2019-05-06T03:38:59.603Z,13.11
2019-05-06T03:41:33.846Z,13.18
2019-05-06T03:44:04.942Z,13.27
2019-05-06T03:46:54.179Z,13.28
2019-05-06T03:49:28.447Z,13.38
2019-05-06T03:52:02.542Z,13.49
2019-05-06T03:54:35.115Z,13.60
2019-05-06T03:57:06.573Z,13.74
2019-05-06T03:59:39.503Z,13.74
2019-05-06T04:02:13.226Z,13.77
2019-05-06T04:04:45.631Z,13.86
2019-05-06T04:07:18.107Z,13.92
2019-05-06T04:09:49.678Z,14.03
2019-05-06T04:12:23.408Z,14.16
2019-05-06T04:14:54.604Z,14.21
2019-05-06T04:17:27.874Z,14.34
2019-05-06T04:20:12.913Z,14.34
2019-05-06T04:22:58.244Z,14.38
2019-05-06T04:25:43.204Z,14.42
2019-05-06T04:28:23.799Z,14.33
2019-05-06T04:30:55.151Z,14.38
2019-05-06T04:33:27.106Z,14.40
2019-05-06T04:35:59.359Z,14.33
2019-05-06T04:38:33.517Z,14.43
2019-05-06T04:41:04.619Z,14.44
2019-05-06T04:43:36.373Z,14.44
2019-05-06T04:46:08.130Z,14.52
2019-05-06T04:48:39.815Z,14.45
2019-05-06T04:51:13.572Z,14.49
2019-05-06T04:53:45.446Z,14.54
2019-05-06T04:56:17.117Z,14.56
2019-05-06T04:58:49.279Z,14.70
2019-05-06T05:01:23.170Z,14.65
2019-05-06T05:03:54.223Z,14.79
2019-05-06T05:06:25.922Z,14.87
2019-05-06T05:08:57.951Z,15.00
2019-05-06T05:11:33.285Z,15.13
2019-05-06T05:14:25.961Z,15.16
2019-05-06T05:16:58.712Z,15.28
2019-05-06T05:19:32.742Z,15.44
2019-05-06T05:22:07.455Z,15.54
2019-05-06T05:24:42.556Z,15.57
2019-05-06T05:27:15.068Z,15.68
2019-05-06T05:29:46.855Z,15.80
2019-05-06T05:32:18.894Z,15.86
2019-05-06T05:34:52.236Z,16.01
2019-05-06T05:37:24.448Z,16.00
2019-05-06T05:39:56.519Z,16.22
2019-05-06T05:42:48.758Z,16.34
2019-05-06T05:45:22.170Z,16.47
2019-05-06T05:47:55.453Z,16.54
2019-05-06T05:50:28.890Z,16.65
2019-05-06T05:53:02.456Z,16.68
2019-05-06T05:55:34.500Z,16.83
2019-05-06T05:58:06.369Z,17.02
2019-05-06T06:00:38.150Z,17.12
2019-05-06T06:03:09.885Z,17.18
2019-05-06T06:05:42.855Z,17.37
2019-05-06T06:08:14.930Z,17.47
2019-05-06T06:11:00.103Z,17.51
2019-05-06T06:13:32.151Z,17.51
2019-05-06T06:16:08.164Z,17.60
2019-05-06T06:18:52.342Z,17.77
2019-05-06T06:21:32.319Z,17.89
2019-05-06T06:24:17.112Z,17.98
2019-05-06T06:26:48.618Z,18.04
2019-05-06T06:29:22.659Z,18.14
2019-05-06T06:32:13.890Z,18.14
2019-05-06T06:34:47.484Z,18.29
2019-05-06T06:37:26.737Z,18.46
2019-05-06T06:40:02.554Z,18.53
2019-05-06T06:42:33.689Z,18.71
2019-05-06T06:45:06.421Z,18.82
2019-05-06T06:47:38.117Z,18.81
2019-05-06T06:50:09.989Z,18.92
2019-05-06T06:52:42.167Z,18.92
2019-05-06T06:55:14.230Z,18.91
2019-05-06T06:58:04.409Z,18.88
2019-05-06T07:00:38.219Z,18.95
2019-05-06T07:03:12.313Z,18.91
2019-05-06T07:06:03.650Z,18.87
2019-05-06T07:08:37.770Z,18.92
2019-05-06T07:11:08.622Z,18.92
2019-05-06T07:13:43.200Z,19.03
2019-05-06T07:16:14.984Z,19.14
2019-05-06T07:18:46.712Z,19.41
2019-05-06T07:21:25.935Z,19.61
2019-05-06T07:23:57.830Z,19.86
2019-05-06T07:26:31.790Z,20.09
2019-05-06T07:29:13.653Z,20.32
2019-05-06T07:31:36.848Z,20.35
2019-05-06T07:34:08.657Z,20.32
2019-05-06T07:36:40.484Z,20.50
2019-05-06T07:39:15.328Z,20.70
2019-05-06T07:41:53.279Z,20.88
2019-05-06T07:44:28.604Z,21.03
2019-05-06T07:47:04.513Z,21.07
2019-05-06T07:49:36.295Z,21.09
2019-05-06T07:52:08.027Z,21.22
2019-05-06T07:54:39.636Z,21.20
2019-05-06T07:57:12.739Z,21.21
2019-05-06T07:59:44.445Z,21.34
2019-05-06T08:02:16.181Z,21.48
2019-05-06T08:04:48.032Z,21.54
2019-05-06T08:07:22.141Z,21.49
2019-05-06T08:09:53.420Z,21.62
2019-05-06T08:12:25.364Z,21.80
2019-05-06T08:14:57.057Z,21.87
2019-05-06T08:17:33.123Z,22.09
2019-05-06T08:20:06.469Z,22.09
2019-05-06T08:22:43.767Z,22.24
2019-05-06T08:25:15.479Z,22.37
2019-05-06T08:27:49.530Z,22.52
2019-05-06T08:30:22.934Z,22.50
2019-05-06T08:32:53.975Z,22.67
2019-05-06T08:35:25.651Z,22.59
2019-05-06T08:37:57.399Z,22.75
2019-05-06T08:40:29.230Z,22.82
2019-05-06T08:43:02.191Z,22.81
2019-05-06T08:45:34.017Z,22.78
2019-05-06T08:48:05.737Z,23.00
2019-05-06T08:50:39.136Z,22.95
2019-05-06T08:53:18.007Z,23.00
2019-05-06T08:55:52.915Z,23.04
2019-05-06T08:58:43.215Z,22.92
2019-05-06T09:01:29.579Z,23.09
2019-05-06T09:04:11.376Z,23.53
2019-05-06T09:06:34.732Z,23.36
2019-05-06T09:09:08.691Z,23.32
2019-05-06T09:11:42.888Z,23.24
2019-05-06T09:14:14.263Z,23.32
2019-05-06T09:16:45.928Z,23.35
2019-05-06T09:19:17.430Z,23.11
2019-05-06T09:21:49.227Z,23.12
2019-05-06T09:24:22.950Z,23.11
2019-05-06T09:26:55.558Z,23.11
2019-05-06T09:29:28.535Z,23.43
2019-05-06T09:32:04.703Z,23.28
2019-05-06T09:34:52.789Z,23.40
2019-05-06T09:37:24.990Z,23.41
2019-05-06T09:39:56.691Z,23.68
2019-05-06T09:42:28.223Z,23.67
2019-05-06T09:45:02.216Z,23.76
2019-05-06T09:47:47.010Z,23.90
2019-05-06T09:50:23.043Z,24.00
2019-05-06T09:52:54.729Z,24.12
2019-05-06T09:55:33.937Z,24.18
2019-05-06T09:58:07.451Z,23.87
2019-05-06T10:00:43.722Z,23.52
2019-05-06T10:03:15.576Z,23.44
2019-05-06T10:05:47.322Z,23.17
2019-05-06T10:08:19.109Z,22.92
2019-05-06T10:10:56.729Z,22.64
2019-05-06T11:56:16.151Z,20.57
2019-05-06T11:58:49.464Z,20.56
2019-05-06T12:01:43.311Z,20.63
2019-05-06T12:04:14.271Z,20.66
2019-05-06T12:06:47.208Z,20.76
2019-05-06T12:09:19.012Z,20.84
2019-05-06T12:11:52.670Z,20.92
2019-05-06T12:14:24.034Z,20.94
2019-05-06T12:16:57.086Z,21.05
2019-05-06T12:19:28.555Z,21.06
2019-05-06T12:22:00.420Z,21.14
2019-05-06T12:24:31.880Z,21.11
2019-05-06T12:27:03.447Z,21.20
2019-05-06T12:29:38.024Z,21.15
2019-05-06T12:32:22.622Z,21.08
2019-05-06T12:34:54.137Z,20.97
2019-05-06T12:37:27.793Z,21.00
2019-05-06T12:39:59.333Z,20.94
2019-05-06T12:42:33.136Z,20.92
2019-05-06T12:45:07.014Z,20.84
2019-05-06T12:47:42.507Z,20.80
2019-05-06T12:50:13.815Z,20.78
2019-05-06T12:52:45.362Z,20.74
2019-05-06T12:55:21.867Z,20.52
2019-05-06T12:57:53.021Z,20.57
2019-05-06T13:00:25.525Z,20.53
2019-05-06T13:02:56.987Z,20.57
2019-05-06T13:05:28.461Z,20.64
2019-05-06T13:08:04.381Z,20.69
2019-05-06T13:10:33.710Z,20.76
2019-05-06T13:13:05.871Z,20.85
2019-05-06T13:15:37.264Z,20.91
2019-05-06T13:18:09.223Z,20.91
2019-05-06T13:20:48.286Z,20.96
2019-05-06T13:23:35.589Z,20.91
2019-05-06T13:26:08.318Z,20.97
2019-05-06T13:28:42.554Z,20.96
2019-05-06T13:31:20.911Z,20.93
2019-05-06T13:33:55.160Z,20.95
2019-05-06T13:36:27.035Z,21.03
2019-05-06T13:39:13.494Z,21.06
2019-05-06T13:41:33.910Z,21.09
2019-05-06T13:44:09.585Z,21.09
2019-05-06T13:46:42.652Z,21.11
2019-05-06T13:49:22.806Z,21.12
2019-05-06T13:52:03.381Z,21.12
2019-05-06T13:54:32.270Z,21.05
2019-05-06T13:57:03.960Z,21.10
2019-05-06T13:59:37.213Z,21.04
2019-05-06T14:02:11.630Z,21.16
2019-05-06T14:04:44.272Z,21.16
2019-05-06T14:07:16.275Z,21.21
2019-05-06T14:09:48.272Z,21.11
2019-05-06T14:12:22.083Z,21.06
2019-05-06T14:14:53.238Z,21.09
2019-05-06T14:17:25.138Z,20.98
2019-05-06T14:19:56.796Z,21.02
2019-05-06T14:22:28.452Z,21.05
2019-05-06T14:25:01.907Z,21.01
2019-05-06T14:27:33.336Z,21.08
2019-05-06T14:30:12.135Z,21.16
2019-05-06T14:32:43.639Z,21.15
2019-05-06T14:35:15.490Z,21.07
2019-05-06T14:37:46.895Z,21.10
2019-05-06T14:40:22.434Z,21.13
2019-05-06T14:42:53.327Z,21.17
2019-05-06T14:45:25.385Z,21.22
2019-05-06T14:47:57.164Z,21.21
2019-05-06T14:50:33.471Z,21.25
2019-05-06T14:53:02.776Z,21.27
2019-05-06T14:55:35.966Z,21.25
2019-05-06T14:58:07.911Z,21.14
2019-05-06T15:00:39.688Z,21.17
2019-05-06T15:03:12.938Z,21.22
2019-05-06T15:05:44.654Z,21.29
2019-05-06T15:08:16.148Z,21.28
2019-05-06T15:10:49.515Z,21.30
2019-05-06T15:13:22.845Z,21.30
2019-05-06T15:15:55.433Z,21.38
2019-05-06T15:18:26.925Z,21.33
2019-05-06T15:21:27.514Z,21.37
2019-05-06T15:23:31.953Z,21.34
2019-05-06T15:26:03.727Z,21.33
2019-05-06T15:28:35.447Z,21.34
2019-05-06T15:31:23.794Z,21.33
2019-05-06T15:34:03.226Z,21.24
2019-05-06T15:36:39.821Z,21.11
2019-05-06T15:39:13.222Z,21.11
2019-05-06T15:41:44.848Z,21.02
2019-05-06T15:44:16.615Z,20.94
2019-05-06T15:46:48.667Z,20.94
2019-05-06T15:49:22.284Z,20.97
2019-05-06T15:51:54.152Z,20.95
2019-05-06T15:54:26.541Z,20.95
2019-05-06T15:56:58.157Z,20.87
2019-05-06T15:59:33.243Z,20.78
2019-05-06T16:02:04.249Z,20.73
2019-05-06T16:04:35.799Z,20.75
2019-05-06T16:07:07.345Z,20.68
2019-05-06T16:09:39.299Z,20.66
2019-05-06T16:12:12.733Z,20.70
2019-05-06T16:14:44.510Z,20.64
2019-05-06T16:17:16.522Z,20.66
2019-05-06T16:19:48.380Z,20.62
2019-05-06T16:22:22.381Z,20.55
2019-05-06T16:25:02.633Z,20.55
2019-05-06T16:27:35.418Z,20.48
2019-05-06T16:30:09.418Z,20.43
2019-05-06T16:32:41.958Z,20.41
2019-05-06T16:35:14.330Z,20.32
2019-05-06T16:37:47.376Z,20.27
2019-05-06T16:40:19.448Z,20.21
2019-05-06T16:42:53.424Z,20.13
2019-05-06T16:45:24.626Z,20.10
2019-05-06T16:47:56.491Z,20.05
2019-05-06T16:50:29.718Z,19.96
2019-05-06T16:53:02.751Z,19.92
2019-05-06T16:55:55.506Z,19.90
2019-05-06T16:58:32.394Z,19.86
2019-05-06T17:01:04.629Z,19.81
2019-05-06T17:03:43.775Z,19.73
2019-05-06T17:06:29.647Z,19.79
2019-05-06T17:09:16.938Z,19.69
2019-05-06T17:11:36.233Z,19.66
2019-05-06T17:14:08.195Z,19.60
2019-05-06T17:16:42.281Z,19.52
2019-05-06T17:19:13.143Z,19.51
2019-05-06T17:21:47.922Z,19.42
2019-05-06T17:24:18.300Z,19.33
2019-05-06T17:26:49.749Z,19.28
2019-05-06T17:29:42.819Z,19.20
2019-05-06T17:32:16.308Z,19.11
2019-05-06T17:34:52.838Z,19.03
2019-05-06T17:37:42.758Z,18.89
2019-05-06T17:40:16.684Z,18.82
2019-05-06T17:42:48.631Z,18.69
2019-05-06T17:45:38.407Z,18.61
2019-05-06T17:48:12.753Z,18.55
2019-05-06T17:50:45.915Z,18.47
2019-05-06T17:53:17.573Z,18.38
2019-05-06T17:55:49.326Z,18.35
2019-05-06T17:58:22.054Z,18.28
2019-05-06T18:00:54.719Z,18.25
2019-05-06T18:03:26.446Z,18.19
2019-05-06T18:05:58.381Z,18.10
2019-05-06T18:08:30.169Z,18.11
2019-05-06T18:11:01.821Z,18.06
2019-05-06T18:13:33.378Z,18.06
2019-05-06T18:16:04.857Z,18.03
2019-05-06T18:18:36.810Z,17.99
2019-05-06T18:21:08.565Z,17.97
2019-05-06T18:23:40.651Z,17.95
2019-05-06T18:26:12.297Z,17.94
2019-05-06T18:28:44.064Z,17.89
2019-05-06T18:31:15.675Z,17.89
2019-05-06T18:33:47.234Z,17.85
2019-05-06T18:36:19.088Z,17.84
2019-05-06T18:38:52.546Z,17.78
2019-05-06T18:41:24.043Z,17.73
2019-05-06T18:43:55.650Z,17.75
2019-05-06T18:46:27.507Z,17.66
2019-05-06T18:48:59.156Z,17.69
2019-05-06T18:51:31.123Z,17.65
2019-05-06T18:54:03.157Z,17.65
2019-05-06T18:56:35.910Z,17.65
2019-05-06T18:59:07.874Z,17.64
2019-05-06T19:01:39.391Z,17.54
2019-05-06T19:04:12.928Z,17.59
2019-05-06T19:06:44.612Z,17.50
2019-05-06T19:09:26.887Z,17.48
2019-05-06T19:11:58.637Z,17.46
2019-05-06T19:14:32.464Z,17.40
2019-05-06T19:17:03.898Z,17.41
2019-05-06T19:19:35.345Z,17.37
2019-05-06T19:22:06.819Z,17.27
2019-05-06T19:24:38.363Z,17.29
2019-05-06T19:27:10.204Z,17.22
2019-05-06T19:29:43.262Z,17.22
2019-05-06T19:32:14.951Z,17.11
2019-05-06T19:34:46.505Z,17.06
2019-05-06T19:37:19.296Z,17.09
2019-05-06T19:39:52.508Z,17.08
2019-05-06T19:42:24.229Z,16.98
2019-05-06T19:44:55.994Z,17.00
2019-05-06T19:47:27.746Z,16.96
2019-05-06T19:49:59.606Z,17.03
2019-05-06T19:52:32.671Z,17.01
2019-05-06T19:55:06.399Z,17.00
2019-05-06T19:57:38.059Z,16.87
2019-05-06T20:00:10.073Z,16.89
2019-05-06T20:02:42.977Z,16.90
2019-05-06T20:05:22.746Z,16.83
2019-05-06T20:08:08.174Z,16.79
2019-05-06T20:10:44.286Z,16.86
2019-05-06T20:13:16.045Z,16.77
2019-05-06T20:15:47.699Z,16.81
2019-05-06T20:18:19.489Z,16.84
2019-05-06T20:20:52.814Z,16.96
2019-05-06T20:23:24.408Z,16.95
2019-05-06T20:25:55.836Z,16.89
2019-05-06T20:28:27.306Z,16.84
2019-05-06T20:30:58.858Z,16.78
2019-05-06T20:33:32.545Z,16.83
2019-05-06T20:36:04.025Z,16.67
2019-05-06T20:38:35.481Z,16.83
2019-05-06T20:41:07.117Z,16.80
2019-05-06T20:43:38.875Z,16.83
2019-05-06T20:46:12.434Z,16.86
2019-05-06T20:48:43.506Z,16.80
2019-05-06T20:51:14.862Z,16.73
2019-05-06T20:53:47.620Z,16.70
2019-05-06T20:56:19.097Z,16.70
2019-05-06T20:58:52.833Z,16.77
2019-05-06T21:01:24.365Z,16.76
2019-05-06T21:03:55.835Z,16.77
2019-05-06T21:06:28.378Z,16.83
2019-05-06T21:09:01.982Z,16.79
2019-05-06T21:11:34.758Z,16.81
2019-05-06T21:14:06.516Z,16.76
2019-05-06T21:16:42.115Z,16.77
2019-05-06T21:19:15.001Z,16.73
2019-05-06T21:21:46.710Z,16.81
2019-05-06T21:24:18.364Z,16.83
2019-05-06T21:26:50.122Z,16.86
2019-05-06T21:29:23.225Z,16.82
2019-05-06T21:31:54.656Z,16.87
2019-05-06T21:34:26.728Z,16.78
2019-05-06T21:36:58.486Z,16.78
2019-05-06T21:39:29.928Z,16.65
2019-05-06T21:42:01.914Z,16.72
2019-05-06T21:44:33.424Z,16.72
2019-05-06T21:47:04.795Z,16.63
2019-05-06T21:49:37.783Z,16.65
2019-05-06T21:52:09.234Z,16.60
2019-05-06T21:54:43.257Z,16.58
2019-05-06T21:57:14.131Z,16.59
2019-05-06T21:59:45.833Z,16.57
2019-05-06T22:02:19.430Z,16.55
2019-05-06T22:04:52.358Z,16.53
2019-05-06T22:07:24.071Z,16.51
2019-05-06T22:09:55.627Z,16.57
2019-05-06T22:12:27.279Z,16.51
2019-05-06T22:14:58.910Z,16.41
2019-05-06T22:17:31.993Z,16.47
2019-05-06T22:20:03.559Z,16.51
2019-05-06T22:22:36.666Z,16.53
2019-05-06T22:25:09.040Z,16.55
2019-05-06T22:27:44.274Z,16.48
2019-05-06T22:30:13.886Z,16.46
2019-05-06T22:32:45.982Z,16.47
2019-05-06T22:35:18.018Z,16.43
2019-05-06T22:37:49.367Z,16.39
2019-05-06T22:40:23.530Z,16.45
2019-05-06T22:42:54.216Z,16.45
2019-05-06T22:45:25.870Z,16.43
2019-05-06T22:47:57.515Z,16.41
2019-05-06T22:50:29.274Z,16.36
2019-05-06T22:53:02.292Z,16.30
2019-05-06T22:55:33.815Z,16.25
2019-05-06T22:58:05.471Z,16.18
2019-05-06T23:00:38.778Z,16.21
2019-05-06T23:03:12.393Z,16.16
2019-05-06T23:05:43.923Z,16.17
2019-05-06T23:08:15.674Z,16.12
2019-05-06T23:10:47.554Z,16.17
2019-05-06T23:13:19.086Z,16.12
2019-05-06T23:15:52.366Z,16.14
2019-05-06T23:18:24.398Z,16.11
2019-05-06T23:20:56.305Z,16.08
2019-05-06T23:23:28.161Z,16.03
2019-05-06T23:26:20.092Z,16.02
2019-05-06T23:28:52.625Z,16.04
2019-05-06T23:31:24.572Z,15.95
2019-05-06T23:33:56.132Z,15.98
2019-05-06T23:36:30.519Z,16.04
2019-05-06T23:39:42.948Z,16.10
2019-05-06T23:42:53.495Z,16.07
2019-05-06T23:46:02.346Z,16.10
2019-05-06T23:49:10.070Z,15.99
2019-05-06T23:52:17.810Z,16.01
2019-05-06T23:55:25.918Z,15.98
2019-05-06T23:57:56.275Z,15.90
